Time;durP1;ratioP1;P1;durP2;ratioP2;P2;SDS_P1;SDS_P2;PMS_P1;PMS_P2;Temp;Humidity;BMP_temperature;BMP_pressure;BME280_temperature;BME280_humidity;BME280_pressure;Samples;Min_cycle;Max_cycle;Signal;HPM_P1;HPM_P2
2023/01/01 00:00:22;;;;;;;19.58;11.30;;;13.60;99.90;;;;;;4922380;29;20127;-74
2023/01/01 00:02:47;;;;;;;23.38;12.82;;;13.60;99.90;;;;;;4935251;29;20079;-74
2023/01/01 00:05:13;;;;;;;20.85;12.90;;;13.50;99.90;;;;;;4933237;29;20044;-74
2023/01/01 00:07:39;;;;;;;23.00;12.93;;;13.40;99.90;;;;;;4919154;29;20059;-73
2023/01/01 00:12:49;;;;;;;20.27;11.57;;;13.30;99.90;;;;;;4922936;29;20056;-73
2023/01/01 00:15:15;;;;;;;22.38;11.48;;;13.20;99.90;;;;;;4902246;29;20051;-73
2023/01/01 00:17:40;;;;;;;18.67;9.82;;;13.20;99.90;;;;;;4915550;29;20059;-74
2023/01/01 00:20:07;;;;;;;19.33;10.80;;;13.20;99.90;;;;;;4920315;29;20058;-73
2023/01/01 00:22:32;;;;;;;22.27;10.93;;;13.20;99.90;;;;;;4916559;29;20119;-72
2023/01/01 00:24:58;;;;;;;20.50;11.23;;;13.20;99.90;;;;;;4919682;29;20445;-74
2023/01/01 00:27:24;;;;;;;20.25;11.93;;;13.20;99.90;;;;;;4917376;29;20111;-74
2023/01/01 00:29:49;;;;;;;22.23;12.45;;;13.20;99.90;;;;;;4905146;29;20106;-75
2023/01/01 00:32:15;;;;;;;24.58;13.68;;;13.20;99.90;;;;;;4917679;29;20057;-74
2023/01/01 00:34:41;;;;;;;22.83;14.25;;;13.20;99.90;;;;;;4917292;29;20051;-74
2023/01/01 00:37:06;;;;;;;21.75;14.50;;;13.20;99.90;;;;;;4918745;29;20067;-74
2023/01/01 00:39:32;;;;;;;25.83;14.73;;;13.20;99.90;;;;;;4910555;29;20071;-74
2023/01/01 00:41:58;;;;;;;23.27;16.55;;;13.20;99.90;;;;;;4924006;29;20154;-74
2023/01/01 00:44:24;;;;;;;27.92;18.65;;;13.20;99.90;;;;;;4922788;29;20130;-74
2023/01/01 00:46:49;;;;;;;26.88;19.00;;;13.20;99.90;;;;;;4923977;29;20052;-74
2023/01/01 00:49:15;;;;;;;32.00;20.90;;;13.10;99.90;;;;;;4925458;29;20477;-74
2023/01/01 00:51:41;;;;;;;31.05;22.60;;;13.10;99.90;;;;;;4925038;29;20094;-74
2023/01/01 00:54:06;;;;;;;29.83;21.17;;;13.10;99.90;;;;;;4923620;29;20243;-75
2023/01/01 00:56:32;;;;;;;31.00;21.48;;;13.10;99.90;;;;;;4924307;29;20134;-74
2023/01/01 00:58:58;;;;;;;30.17;21.63;;;13.10;99.90;;;;;;4942463;29;20398;-75
2023/01/01 01:01:24;;;;;;;29.85;21.70;;;13.20;99.90;;;;;;4943589;29;20511;-76
2023/01/01 01:03:49;;;;;;;29.45;21.83;;;13.20;99.90;;;;;;4907381;29;20043;-75
2023/01/01 01:06:17;;;;;;;31.15;21.35;;;13.20;99.90;;;;;;4924431;29;20047;-75
2023/01/01 01:08:45;;;;;;;29.48;19.88;;;13.20;99.90;;;;;;4939919;29;20039;-75
2023/01/01 01:11:19;;;;;;;30.70;19.90;;;13.20;99.90;;;;;;4924831;29;20054;-74
2023/01/01 01:13:47;;;;;;;29.92;20.48;;;13.30;99.90;;;;;;4925947;29;20115;-74
2023/01/01 01:16:25;;;;;;;31.67;20.70;;;13.40;99.90;;;;;;4923952;29;20043;-74
2023/01/01 01:18:59;;;;;;;27.38;18.92;;;13.40;99.90;;;;;;4924083;29;20479;-75
2023/01/01 01:21:26;;;;;;;28.92;19.05;;;13.40;99.90;;;;;;4925545;29;20058;-74
2023/01/01 01:23:53;;;;;;;26.90;17.88;;;13.40;99.90;;;;;;4923772;29;20063;-74
2023/01/01 01:26:20;;;;;;;27.77;18.38;;;13.40;99.90;;;;;;4892501;29;20052;-74
2023/01/01 01:28:46;;;;;;;28.35;18.17;;;13.40;99.90;;;;;;4923795;29;20132;-76
2023/01/01 01:31:12;;;;;;;27.73;18.60;;;13.40;99.90;;;;;;4931319;29;20060;-74
2023/01/01 01:33:38;;;;;;;25.98;17.45;;;13.40;99.90;;;;;;4923483;29;20048;-74
2023/01/01 01:36:05;;;;;;;28.25;18.95;;;13.40;99.90;;;;;;4941421;29;20058;-75
2023/01/01 01:38:31;;;;;;;29.10;18.95;;;13.40;99.90;;;;;;4922219;29;20062;-75
2023/01/01 01:40:57;;;;;;;27.85;19.10;;;13.40;99.90;;;;;;4927723;29;20508;-75
2023/01/01 01:43:44;;;;;;;28.70;19.77;;;13.30;99.90;;;;;;4918691;29;20044;-75
2023/01/01 01:46:15;;;;;;;29.50;19.23;;;13.30;99.90;;;;;;4938180;29;20054;-75
2023/01/01 01:48:44;;;;;;;31.63;19.52;;;13.30;99.90;;;;;;4922370;29;20106;-75
2023/01/01 01:51:13;;;;;;;28.98;19.38;;;12.60;99.90;;;;;;4920136;29;20485;-75
2023/01/01 01:53:45;;;;;;;28.40;20.13;;;13.20;99.90;;;;;;4918443;29;20127;-75
2023/01/01 01:56:18;;;;;;;27.00;20.23;;;13.20;99.90;;;;;;4920569;29;20450;-75
2023/01/01 01:58:44;;;;;;;29.50;20.83;;;13.20;99.90;;;;;;4936826;29;20071;-74
2023/01/01 02:01:10;;;;;;;30.00;22.33;;;13.20;99.90;;;;;;4923229;29;20048;-75
2023/01/01 02:03:43;;;;;;;30.33;22.17;;;13.10;99.90;;;;;;4920133;29;20563;-75
2023/01/01 02:06:10;;;;;;;30.58;21.75;;;13.10;99.90;;;;;;4933120;29;20114;-74
2023/01/01 02:08:36;;;;;;;30.05;21.35;;;13.10;99.90;;;;;;4919328;29;20058;-75
2023/01/01 02:11:02;;;;;;;26.92;19.98;;;13.00;99.90;;;;;;4927382;29;20059;-74
2023/01/01 02:13:28;;;;;;;29.77;19.70;;;13.10;99.90;;;;;;4924315;29;20122;-74
2023/01/01 02:16:06;;;;;;;28.63;19.20;;;13.00;99.90;;;;;;4920230;29;20047;-75
2023/01/01 02:18:44;;;;;;;29.15;20.02;;;13.10;99.90;;;;;;4931498;29;20052;-74
2023/01/01 02:21:16;;;;;;;29.38;20.42;;;13.10;99.90;;;;;;4922428;29;20054;-74
2023/01/01 02:23:42;;;;;;;;;;;13.00;99.90;;;;;;4923486;29;20055;-74
2023/01/01 02:26:19;;;;;;;26.75;17.50;;;13.00;99.90;;;;;;4919769;29;20009;-76
2023/01/01 02:28:51;;;;;;;25.20;16.23;;;13.00;99.90;;;;;;4935527;29;20051;-75
2023/01/01 02:31:23;;;;;;;25.35;16.73;;;13.10;99.90;;;;;;4938088;29;20059;-74
2023/01/01 02:33:52;;;;;;;27.63;16.27;;;13.20;99.90;;;;;;4936667;29;20062;-75
2023/01/01 02:36:18;;;;;;;26.05;16.30;;;13.20;99.90;;;;;;4907757;29;20437;-75
2023/01/01 02:38:47;;;;;;;24.85;15.80;;;13.20;99.90;;;;;;4918175;29;20055;-75
2023/01/01 02:41:19;;;;;;;25.65;16.70;;;13.30;99.90;;;;;;4927834;29;20055;-75
2023/01/01 02:43:45;;;;;;;24.75;15.65;;;13.20;99.90;;;;;;4921477;29;20047;-74
2023/01/01 02:46:11;;;;;;;23.90;15.98;;;13.20;99.90;;;;;;4936565;29;20039;-74
2023/01/01 02:48:39;;;;;;;25.38;14.57;;;13.20;99.90;;;;;;4923226;29;20059;-74
2023/01/01 02:51:16;;;;;;;21.70;14.45;;;13.20;99.90;;;;;;4925239;29;20059;-74
2023/01/01 02:54:06;;;;;;;22.20;12.40;;;13.20;99.90;;;;;;4931431;29;20090;-74
2023/01/01 02:56:38;;;;;;;20.45;11.95;;;13.30;99.90;;;;;;4905784;29;21533;-75
2023/01/01 03:02:35;;;;;;;22.40;11.35;;;13.30;99.90;;;;;;4916172;29;20551;-73
2023/01/01 03:05:19;;;;;;;22.80;11.02;;;13.30;99.90;;;;;;4921891;29;20055;-74
2023/01/01 03:08:06;;;;;;;20.50;11.30;;;13.30;99.90;;;;;;4931471;29;20119;-75
2023/01/01 03:11:05;;;;;;;20.20;10.90;;;13.20;99.90;;;;;;4940272;29;20059;-75
2023/01/01 03:13:37;;;;;;;17.48;9.00;;;13.20;99.90;;;;;;4936614;29;20409;-73
2023/01/01 03:16:06;;;;;;;17.25;8.57;;;13.30;99.90;;;;;;4918540;29;20056;-74
2023/01/01 03:18:39;;;;;;;18.67;7.85;;;13.30;99.90;;;;;;4922317;29;20055;-75
2023/01/01 03:21:08;;;;;;;14.10;7.00;;;13.30;99.90;;;;;;4920940;29;20056;-75
2023/01/01 03:23:47;;;;;;;12.65;5.78;;;13.30;99.90;;;;;;4922190;29;20070;-73
2023/01/01 03:26:14;;;;;;;12.60;5.88;;;13.40;99.90;;;;;;4927633;29;20051;-75
2023/01/01 03:28:53;;;;;;;13.63;5.10;;;13.40;99.90;;;;;;4917043;29;20055;-74
2023/01/01 03:31:24;;;;;;;12.57;4.90;;;13.40;99.90;;;;;;4918422;29;20055;-76
2023/01/01 03:34:05;;;;;;;12.65;4.57;;;13.50;99.90;;;;;;4918708;29;20050;-73
2023/01/01 03:36:35;;;;;;;11.10;4.35;;;13.50;99.90;;;;;;4920770;29;20555;-72
2023/01/01 03:39:07;;;;;;;12.27;4.50;;;13.50;99.90;;;;;;4916870;29;20060;-74
2023/01/01 03:41:57;;;;;;;12.20;4.50;;;13.60;99.90;;;;;;4922690;29;20118;-73
2023/01/01 03:44:31;;;;;;;10.98;3.75;;;13.60;99.90;;;;;;4913975;29;20051;-73
2023/01/01 03:46:57;;;;;;;12.02;3.55;;;13.70;99.90;;;;;;4915499;29;20552;-72
2023/01/01 03:49:24;;;;;;;10.05;3.33;;;13.70;99.90;;;;;;4918620;29;20407;-75
2023/01/01 03:52:08;;;;;;;10.38;3.65;;;13.70;99.90;;;;;;4924008;29;20047;-72
2023/01/01 03:54:51;;;;;;;9.35;3.13;;;13.70;99.90;;;;;;4917599;29;20064;-73
2023/01/01 03:57:35;;;;;;;9.57;3.20;;;13.70;99.90;;;;;;4917388;29;20106;-73
2023/01/01 04:00:06;;;;;;;10.40;3.13;;;13.80;99.90;;;;;;4920338;29;20044;-73
2023/01/01 04:02:39;;;;;;;10.57;3.33;;;13.80;99.90;;;;;;4917259;29;20048;-74
2023/01/01 04:05:06;;;;;;;12.07;3.60;;;13.80;99.90;;;;;;4922622;29;20056;-75
2023/01/01 04:07:32;;;;;;;10.20;3.20;;;13.90;99.90;;;;;;4917158;29;20191;-73
2023/01/01 04:10:00;;;;;;;9.20;3.00;;;13.90;99.90;;;;;;4923004;29;20059;-73
2023/01/01 04:12:28;;;;;;;10.45;2.90;;;13.80;99.90;;;;;;4920158;29;20088;-74
2023/01/01 04:14:54;;;;;;;9.48;3.10;;;13.90;99.90;;;;;;4917764;29;20052;-73
2023/01/01 04:17:20;;;;;;;11.35;3.00;;;13.90;99.90;;;;;;4906295;29;20395;-74
2023/01/01 04:19:45;;;;;;;11.38;2.72;;;13.80;99.90;;;;;;4937469;29;20050;-74
2023/01/01 04:22:11;;;;;;;9.80;2.70;;;13.90;99.90;;;;;;4933466;29;20046;-75
2023/01/01 04:24:37;;;;;;;8.18;2.50;;;13.90;99.90;;;;;;4922104;29;20436;-73
2023/01/01 04:27:03;;;;;;;9.65;2.50;;;13.90;99.90;;;;;;4918075;29;20047;-74
2023/01/01 04:29:28;;;;;;;11.27;2.80;;;13.90;99.90;;;;;;4907554;29;20047;-75
2023/01/01 04:31:54;;;;;;;10.63;2.88;;;13.90;99.90;;;;;;4918620;29;20103;-74
2023/01/01 04:34:20;;;;;;;12.52;2.70;;;13.90;99.90;;;;;;4917652;29;20043;-75
2023/01/01 04:36:45;;;;;;;9.02;2.60;;;13.90;99.90;;;;;;4922410;29;20051;-75
2023/01/01 04:39:11;;;;;;;8.55;2.47;;;13.90;99.90;;;;;;4919691;29;20071;-73
2023/01/01 04:41:37;;;;;;;13.10;2.88;;;13.80;99.90;;;;;;4919286;29;20099;-75
2023/01/01 04:44:03;;;;;;;9.85;2.78;;;13.90;99.90;;;;;;4916411;29;20048;-74
2023/01/01 04:46:28;;;;;;;9.10;2.60;;;13.80;99.90;;;;;;4911019;29;20047;-73
2023/01/01 04:48:54;;;;;;;9.52;2.70;;;13.90;99.90;;;;;;4917841;29;20058;-73
2023/01/01 04:51:20;;;;;;;8.90;2.50;;;13.90;99.90;;;;;;4940794;29;20122;-74
2023/01/01 04:53:46;;;;;;;9.35;2.70;;;13.90;99.90;;;;;;4911069;29;20052;-74
2023/01/01 04:56:15;;;;;;;10.40;2.58;;;13.90;99.90;;;;;;4934145;29;20051;-74
2023/01/01 04:58:42;;;;;;;10.63;2.50;;;13.90;99.90;;;;;;4920601;29;20051;-75
2023/01/01 05:01:13;;;;;;;10.10;2.50;;;13.90;99.90;;;;;;4919613;29;20384;-75
2023/01/01 05:03:39;;;;;;;11.52;2.83;;;14.00;99.90;;;;;;4931003;29;20543;-74
2023/01/01 05:06:07;;;;;;;9.60;2.75;;;13.90;99.90;;;;;;4916874;29;20277;-75
2023/01/01 05:08:34;;;;;;;9.73;1.90;;;13.90;99.90;;;;;;4916909;29;20485;-74
2023/01/01 05:11:08;;;;;;;8.95;2.35;;;13.90;99.90;;;;;;4920909;29;20484;-74
2023/01/01 05:13:36;;;;;;;10.35;2.65;;;14.00;99.90;;;;;;4918354;29;20052;-73
2023/01/01 05:16:06;;;;;;;8.75;2.25;;;14.00;99.90;;;;;;4917145;29;20059;-74
2023/01/01 05:18:32;;;;;;;8.77;2.30;;;14.00;99.90;;;;;;4921441;29;20126;-75
2023/01/01 05:21:06;;;;;;;9.90;2.30;;;13.90;99.90;;;;;;4926439;29;20066;-74
2023/01/01 05:23:32;;;;;;;10.15;2.58;;;13.90;99.90;;;;;;4921050;29;20051;-75
2023/01/01 05:25:58;;;;;;;8.88;2.28;;;13.80;99.90;;;;;;4921022;29;20059;-74
2023/01/01 05:28:24;;;;;;;7.18;1.90;;;13.80;99.90;;;;;;4936667;29;20050;-74
2023/01/01 05:30:53;;;;;;;9.93;2.50;;;13.80;99.90;;;;;;4924274;29;20055;-75
2023/01/01 05:33:19;;;;;;;8.70;2.28;;;13.70;99.90;;;;;;4904173;29;20044;-74
2023/01/01 05:35:51;;;;;;;8.25;2.00;;;13.80;99.90;;;;;;4905477;29;20059;-74
2023/01/01 05:38:16;;;;;;;7.30;1.73;;;13.70;99.90;;;;;;4905273;29;20505;-71
2023/01/01 05:40:42;;;;;;;8.45;1.90;;;13.70;99.90;;;;;;4913310;29;20075;-74
2023/01/01 05:43:08;;;;;;;7.72;1.80;;;13.70;99.90;;;;;;4916645;29;20059;-74
2023/01/01 05:45:33;;;;;;;6.90;1.60;;;13.70;99.90;;;;;;4901764;29;20066;-76
2023/01/01 05:47:59;;;;;;;7.70;1.60;;;13.60;99.90;;;;;;4917084;29;20059;-75
2023/01/01 05:50:25;;;;;;;6.60;1.80;;;13.70;99.90;;;;;;4918084;29;20048;-75
2023/01/01 05:52:50;;;;;;;6.80;1.55;;;13.60;99.90;;;;;;4917392;29;20055;-76
2023/01/01 05:55:16;;;;;;;5.88;1.33;;;13.60;99.90;;;;;;4917396;29;20067;-74
2023/01/01 05:57:42;;;;;;;5.35;1.40;;;13.70;99.90;;;;;;4920259;29;20047;-74
2023/01/01 06:00:08;;;;;;;5.35;1.35;;;13.70;99.90;;;;;;4921023;29;20489;-75
2023/01/01 06:02:34;;;;;;;6.70;1.52;;;13.60;99.90;;;;;;4916938;29;20100;-74
2023/01/01 06:04:59;;;;;;;6.70;1.38;;;13.50;99.90;;;;;;4921410;29;20465;-75
2023/01/01 06:07:25;;;;;;;6.10;1.30;;;13.60;99.90;;;;;;4915975;29;20059;-75
2023/01/01 06:09:51;;;;;;;6.35;1.33;;;13.50;99.90;;;;;;4898637;29;20504;-77
2023/01/01 06:12:16;;;;;;;7.35;1.40;;;13.50;99.90;;;;;;4920709;29;20135;-74
2023/01/01 06:14:42;;;;;;;6.15;1.27;;;13.40;99.90;;;;;;4916993;29;20063;-77
2023/01/01 06:17:08;;;;;;;7.65;1.38;;;13.40;99.90;;;;;;4916529;29;20400;-74
2023/01/01 06:19:33;;;;;;;7.38;1.63;;;13.40;99.90;;;;;;4921190;29;20134;-74
2023/01/01 06:21:59;;;;;;;7.25;1.50;;;13.30;99.90;;;;;;4920867;29;20480;-74
2023/01/01 06:24:25;;;;;;;5.13;1.30;;;13.30;99.90;;;;;;4918417;29;20056;-74
2023/01/01 06:26:50;;;;;;;5.53;1.38;;;13.20;99.90;;;;;;4901404;29;20051;-76
2023/01/01 06:29:16;;;;;;;6.43;1.40;;;13.20;99.90;;;;;;4916990;29;20052;-76
2023/01/01 06:31:42;;;;;;;5.75;1.45;;;13.10;99.90;;;;;;4920037;29;20589;-74
2023/01/01 06:34:08;;;;;;;4.95;1.40;;;13.10;99.90;;;;;;4916216;29;20060;-75
2023/01/01 06:36:33;;;;;;;6.00;1.40;;;13.10;99.90;;;;;;4919512;29;20507;-76
2023/01/01 06:38:59;;;;;;;6.70;1.45;;;13.10;99.90;;;;;;4914968;29;20063;-76
2023/01/01 06:41:27;;;;;;;6.35;1.50;;;13.10;99.90;;;;;;4917138;29;20056;-75
2023/01/01 06:43:55;;;;;;;4.40;1.40;;;13.10;99.90;;;;;;4915160;29;20072;-75
2023/01/01 06:46:29;;;;;;;5.85;1.50;;;13.00;99.90;;;;;;4916656;29;20047;-75
2023/01/01 06:49:01;;;;;;;7.05;1.60;;;13.10;99.90;;;;;;4913046;29;20127;-74
2023/01/01 06:51:33;;;;;;;7.38;1.80;;;13.00;99.90;;;;;;4918610;29;20599;-74
2023/01/01 06:54:00;;;;;;;7.55;1.60;;;13.00;99.90;;;;;;4918179;29;20052;-74
2023/01/01 06:56:27;;;;;;;6.68;1.50;;;13.00;99.90;;;;;;4916532;29;20489;-74
2023/01/01 06:58:52;;;;;;;7.05;1.60;;;12.90;99.90;;;;;;4920779;29;20051;-75
2023/01/01 07:01:21;;;;;;;7.57;1.60;;;12.90;99.90;;;;;;4903714;29;20051;-75
2023/01/01 07:03:56;;;;;;;9.40;1.80;;;12.90;99.90;;;;;;4919131;29;20143;-73
2023/01/01 07:06:22;;;;;;;5.80;1.50;;;12.90;99.90;;;;;;4915306;29;20051;-75
2023/01/01 07:08:48;;;;;;;8.15;1.70;;;12.90;99.90;;;;;;4911997;29;20065;-75
2023/01/01 07:11:14;;;;;;;9.55;1.98;;;12.90;99.90;;;;;;4920639;29;20385;-75
2023/01/01 07:13:40;;;;;;;7.28;1.80;;;12.80;99.90;;;;;;4888151;29;20503;-75
2023/01/01 07:16:06;;;;;;;8.18;1.70;;;12.80;99.90;;;;;;4916923;29;20044;-75
2023/01/01 07:18:32;;;;;;;7.45;1.80;;;12.80;99.90;;;;;;4916919;29;20079;-78
2023/01/01 07:21:00;;;;;;;7.22;1.77;;;12.80;99.90;;;;;;4919741;29;20087;-75
2023/01/01 07:23:27;;;;;;;7.70;1.83;;;12.70;99.90;;;;;;4912506;29;20048;-75
2023/01/01 07:25:54;;;;;;;8.52;1.50;;;12.70;99.90;;;;;;4918955;29;20111;-74
2023/01/01 07:28:21;;;;;;;7.18;1.80;;;12.70;99.90;;;;;;4930945;29;20063;-74
2023/01/01 07:30:47;;;;;;;5.90;1.70;;;12.70;99.90;;;;;;4917273;29;20283;-76
2023/01/01 07:33:15;;;;;;;7.90;1.60;;;12.60;99.90;;;;;;4919892;29;20099;-77
2023/01/01 07:35:43;;;;;;;9.65;2.03;;;12.60;99.90;;;;;;4925458;29;20095;-74
2023/01/01 07:38:09;;;;;;;8.98;1.80;;;12.60;99.90;;;;;;4908058;29;20143;-75
2023/01/01 07:40:35;;;;;;;9.18;1.67;;;12.60;99.90;;;;;;4917586;29;20060;-74
2023/01/01 07:43:01;;;;;;;8.82;1.90;;;12.60;99.90;;;;;;4913105;29;20067;-75
2023/01/01 07:45:27;;;;;;;7.82;1.65;;;12.60;99.90;;;;;;4913349;29;20050;-76
2023/01/01 07:47:54;;;;;;;9.95;1.80;;;12.60;99.90;;;;;;4907368;29;20477;-75
2023/01/01 07:50:21;;;;;;;9.52;1.83;;;12.50;99.90;;;;;;4916011;29;20052;-75
2023/01/01 07:52:47;;;;;;;9.05;1.77;;;12.50;99.90;;;;;;4912041;29;20056;-76
2023/01/01 07:55:18;;;;;;;8.65;1.63;;;12.50;99.90;;;;;;4910682;29;20480;-76
2023/01/01 07:57:44;;;;;;;9.65;1.83;;;12.50;99.90;;;;;;4913182;29;20055;-75
2023/01/01 08:00:13;;;;;;;10.43;1.90;;;12.50;99.90;;;;;;4909345;29;20106;-76
2023/01/01 08:02:39;;;;;;;8.57;1.85;;;12.50;99.90;;;;;;4912585;29;20240;-76
2023/01/01 08:05:05;;;;;;;7.13;1.70;;;12.50;99.90;;;;;;4912299;29;20052;-75
2023/01/01 08:07:31;;;;;;;9.05;1.80;;;12.50;99.90;;;;;;4911361;29;20048;-74
2023/01/01 08:09:57;;;;;;;7.60;1.70;;;12.50;99.90;;;;;;4912538;29;20539;-77
2023/01/01 08:12:23;;;;;;;7.15;1.63;;;12.50;99.90;;;;;;4912041;29;20370;-75
2023/01/01 08:14:49;;;;;;;6.88;1.67;;;12.50;99.90;;;;;;4899729;29;20056;-76
2023/01/01 08:17:15;;;;;;;7.72;1.90;;;12.40;99.90;;;;;;4912813;29;20040;-75
2023/01/01 08:19:40;;;;;;;8.60;1.80;;;12.40;99.90;;;;;;4916112;29;20051;-76
2023/01/01 08:22:06;;;;;;;9.70;1.73;;;12.40;99.90;;;;;;4915105;29;20044;-76
2023/01/01 08:24:32;;;;;;;9.48;1.70;;;12.50;99.90;;;;;;4900008;29;20062;-75
2023/01/01 08:26:58;;;;;;;7.90;1.80;;;12.40;99.90;;;;;;4915909;29;20059;-74
2023/01/01 08:29:23;;;;;;;8.10;1.80;;;12.40;99.90;;;;;;4915653;29;20055;-77
2023/01/01 08:31:49;;;;;;;7.05;1.90;;;12.30;99.90;;;;;;4915914;29;20051;-76
2023/01/01 08:34:15;;;;;;;9.90;1.85;;;12.30;99.90;;;;;;4900025;29;20474;-75
2023/01/01 08:36:40;;;;;;;7.97;1.70;;;12.40;99.90;;;;;;4915827;29;20055;-74
2023/01/01 08:39:07;;;;;;;9.18;1.80;;;12.30;99.90;;;;;;4914499;29;20056;-74
2023/01/01 08:41:32;;;;;;;10.48;1.92;;;12.30;99.90;;;;;;4915586;29;20134;-74
2023/01/01 08:43:59;;;;;;;9.65;1.90;;;12.30;99.90;;;;;;4914368;29;20107;-75
2023/01/01 08:46:24;;;;;;;9.80;1.88;;;12.30;99.90;;;;;;4915610;29;20132;-75
2023/01/01 08:48:50;;;;;;;10.10;1.95;;;12.30;99.90;;;;;;4915830;29;20135;-75
2023/01/01 08:51:16;;;;;;;9.88;2.00;;;12.30;99.90;;;;;;4915664;29;20094;-76
2023/01/01 08:53:42;;;;;;;11.23;2.15;;;12.20;99.90;;;;;;4913787;29;20044;-75
2023/01/01 08:56:09;;;;;;;9.50;1.80;;;12.20;99.90;;;;;;4916997;29;20047;-75
2023/01/01 08:58:37;;;;;;;10.40;1.88;;;12.20;99.90;;;;;;4915948;29;20052;-76
2023/01/01 09:01:04;;;;;;;12.05;1.92;;;12.20;99.90;;;;;;4919572;29;20063;-75
2023/01/01 09:03:30;;;;;;;6.85;1.58;;;12.20;99.90;;;;;;4916362;29;20056;-75
2023/01/01 09:05:56;;;;;;;9.55;1.70;;;12.20;99.90;;;;;;4915231;29;20059;-74
2023/01/01 09:08:22;;;;;;;9.98;1.88;;;12.10;99.90;;;;;;4899739;29;20123;-74
2023/01/01 09:10:48;;;;;;;11.15;2.15;;;12.20;99.90;;;;;;4913125;29;20188;-75
2023/01/01 09:13:15;;;;;;;11.48;2.00;;;12.20;99.90;;;;;;4902383;29;20045;-75
2023/01/01 09:15:42;;;;;;;7.30;1.83;;;12.20;99.90;;;;;;4908792;29;20063;-76
2023/01/01 09:18:08;;;;;;;9.63;2.20;;;12.10;99.90;;;;;;4913837;29;20400;-75
2023/01/01 09:20:34;;;;;;;12.70;2.15;;;12.20;99.90;;;;;;4912097;29;20052;-76
2023/01/01 09:23:00;;;;;;;11.48;2.13;;;12.10;99.90;;;;;;4917631;29;20131;-75
2023/01/01 09:25:26;;;;;;;12.07;2.05;;;12.10;99.90;;;;;;4919839;29;20139;-75
2023/01/01 09:28:03;;;;;;;13.95;2.00;;;12.20;99.90;;;;;;4902864;29;20063;-74
2023/01/01 09:30:30;;;;;;;11.65;2.10;;;12.20;99.90;;;;;;4919173;29;20058;-75
2023/01/01 09:32:55;;;;;;;11.52;1.70;;;12.20;99.90;;;;;;4918542;29;20055;-75
2023/01/01 09:35:21;;;;;;;12.02;1.92;;;12.20;99.90;;;;;;4920024;29;20048;-74
2023/01/01 09:37:47;;;;;;;11.13;2.25;;;12.30;99.90;;;;;;4917708;29;20464;-74
2023/01/01 09:40:30;;;;;;;11.15;2.20;;;12.30;99.90;;;;;;4921990;29;20064;-74
2023/01/01 09:43:08;;;;;;;12.70;2.00;;;12.40;99.90;;;;;;4904416;29;20054;-74
2023/01/01 09:46:01;;;;;;;12.10;2.20;;;12.40;99.90;;;;;;4921522;29;20063;-74
2023/01/01 09:48:30;;;;;;;9.55;2.00;;;12.40;99.90;;;;;;4937499;29;20051;-75
2023/01/01 09:50:57;;;;;;;12.05;2.35;;;12.40;99.90;;;;;;4913991;29;20492;-75
2023/01/01 09:54:11;;;;;;;13.57;2.30;;;12.40;99.90;;;;;;4907136;29;20091;-75
2023/01/01 09:56:39;;;;;;;9.70;1.83;;;12.50;99.90;;;;;;4916088;29;20056;-74
2023/01/01 09:59:09;;;;;;;12.95;2.20;;;12.50;99.90;;;;;;4904894;29;20059;-75
2023/01/01 10:01:43;;;;;;;11.27;1.83;;;12.50;99.90;;;;;;4931119;29;20051;-74
2023/01/01 10:04:18;;;;;;;12.35;2.08;;;12.50;99.90;;;;;;4920231;29;20044;-74
2023/01/01 10:06:59;;;;;;;10.00;2.10;;;12.50;99.90;;;;;;4909815;29;20075;-74
2023/01/01 10:09:32;;;;;;;10.90;2.00;;;12.50;99.90;;;;;;4919341;29;20048;-75
2023/01/01 10:12:20;;;;;;;10.18;2.05;;;12.40;99.90;;;;;;4918355;29;20373;-75
2023/01/01 10:14:51;;;;;;;10.05;2.00;;;12.40;99.90;;;;;;4913030;29;20050;-74
2023/01/01 10:17:41;;;;;;;11.23;2.00;;;12.30;99.90;;;;;;4916768;29;20546;-75
2023/01/01 10:20:29;;;;;;;9.82;2.03;;;12.30;99.90;;;;;;4912065;29;20098;-75
2023/01/01 10:23:19;;;;;;;10.30;1.88;;;12.20;99.90;;;;;;4934420;29;20048;-74
2023/01/01 10:25:45;;;;;;;11.02;1.80;;;12.10;99.90;;;;;;4921156;29;20542;-74
2023/01/01 10:28:25;;;;;;;11.20;2.05;;;12.10;99.90;;;;;;4920819;29;20052;-74
2023/01/01 10:31:09;;;;;;;12.13;2.10;;;12.10;99.90;;;;;;4921973;29;20055;-75
2023/01/01 10:33:35;;;;;;;9.90;1.80;;;12.00;99.90;;;;;;4917964;29;20111;-74
2023/01/01 10:36:01;;;;;;;9.48;1.85;;;12.00;99.90;;;;;;4904271;29;20059;-76
2023/01/01 10:38:27;;;;;;;11.00;1.92;;;12.10;99.90;;;;;;4892250;29;20117;-74
2023/01/01 10:41:05;;;;;;;10.27;1.80;;;12.20;99.90;;;;;;4919558;29;20059;-74
2023/01/01 10:43:31;;;;;;;8.30;1.73;;;12.20;99.90;;;;;;4904421;29;20052;-75
2023/01/01 10:46:01;;;;;;;8.38;1.90;;;12.40;99.90;;;;;;4904858;29;20110;-74
2023/01/01 10:48:31;;;;;;;8.90;1.92;;;12.40;99.90;;;;;;4919998;29;20043;-74
2023/01/01 10:51:02;;;;;;;9.63;1.55;;;12.50;99.90;;;;;;4918291;29;20064;-75
2023/01/01 10:53:33;;;;;;;10.82;1.90;;;12.40;99.90;;;;;;4922158;29;20048;-75
2023/01/01 10:56:11;;;;;;;10.33;1.80;;;12.40;99.90;;;;;;4915332;29;20136;-75
2023/01/01 10:58:41;;;;;;;8.77;1.80;;;12.40;99.90;;;;;;4933360;29;20093;-75
2023/01/01 11:01:24;;;;;;;11.07;2.00;;;12.40;99.90;;;;;;4920470;29;20052;-75
2023/01/01 11:04:00;;;;;;;12.30;2.10;;;12.30;99.90;;;;;;4937134;29;20477;-74
2023/01/01 11:06:33;;;;;;;12.75;2.15;;;12.40;99.90;;;;;;4914369;29;20040;-74
2023/01/01 11:09:02;;;;;;;11.18;1.90;;;12.40;99.90;;;;;;4912345;29;20096;-74
2023/01/01 11:11:53;;;;;;;10.85;1.90;;;12.40;99.90;;;;;;4915400;29;20052;-74
2023/01/01 11:14:26;;;;;;;10.13;1.80;;;12.50;99.90;;;;;;4913397;29;20400;-75
2023/01/01 11:16:53;;;;;;;9.82;1.92;;;12.50;99.90;;;;;;4917781;29;20082;-75
2023/01/01 11:19:28;;;;;;;10.88;1.90;;;12.60;99.90;;;;;;4906286;29;20064;-75
2023/01/01 11:21:54;;;;;;;9.50;2.00;;;12.70;99.90;;;;;;4916914;29;20531;-75
2023/01/01 11:24:22;;;;;;;10.65;1.95;;;12.70;99.90;;;;;;4917302;29;20476;-75
2023/01/01 11:26:49;;;;;;;9.45;2.10;;;12.80;99.90;;;;;;4929543;29;20521;-74
2023/01/01 11:29:15;;;;;;;10.27;2.05;;;12.80;99.90;;;;;;4918017;29;20066;-75
2023/01/01 11:31:44;;;;;;;9.95;1.90;;;12.90;99.90;;;;;;4904081;29;20055;-75
2023/01/01 11:34:26;;;;;;;13.80;2.10;;;12.90;99.90;;;;;;4919994;29;20377;-76
2023/01/01 11:37:04;;;;;;;14.60;2.20;;;13.00;99.90;;;;;;4919966;29;20059;-76
2023/01/01 11:39:34;;;;;;;10.52;2.20;;;13.10;99.90;;;;;;4919601;29;20478;-75
2023/01/01 11:42:00;;;;;;;9.32;1.98;;;13.10;99.90;;;;;;4907055;29;20555;-76
2023/01/01 11:44:34;;;;;;;9.95;1.95;;;13.00;99.90;;;;;;4918644;29;20097;-75
2023/01/01 11:47:01;;;;;;;12.30;1.88;;;13.00;99.90;;;;;;4918694;29;20400;-75
2023/01/01 11:49:29;;;;;;;12.75;2.50;;;12.90;99.90;;;;;;4918789;29;20052;-74
2023/01/01 11:51:56;;;;;;;10.40;2.00;;;12.90;99.90;;;;;;4918436;29;20404;-75
2023/01/01 11:54:31;;;;;;;11.68;2.03;;;12.90;99.90;;;;;;4918416;29;20062;-76
2023/01/01 11:57:15;;;;;;;11.48;2.20;;;12.90;99.90;;;;;;4916795;29;20051;-74
2023/01/01 11:59:57;;;;;;;11.35;2.50;;;12.90;99.90;;;;;;4919548;29;20056;-74
2023/01/01 12:02:35;;;;;;;12.27;2.67;;;12.90;99.90;;;;;;4919203;29;20092;-74
2023/01/01 12:05:33;;;;;;;9.32;1.90;;;12.80;99.90;;;;;;4919597;29;20055;-76
2023/01/01 12:08:02;;;;;;;12.55;2.25;;;12.90;99.90;;;;;;4902428;29;20044;-75
2023/01/01 12:10:38;;;;;;;11.65;2.30;;;12.90;99.90;;;;;;4909405;29;20084;-74
2023/01/01 12:13:12;;;;;;;12.75;2.22;;;12.90;99.90;;;;;;4932949;29;20051;-75
2023/01/01 12:15:46;;;;;;;11.45;2.15;;;12.90;99.90;;;;;;4908904;29;20059;-75
2023/01/01 12:18:30;;;;;;;11.07;2.30;;;12.90;99.90;;;;;;4915404;29;20048;-74
2023/01/01 12:21:31;;;;;;;14.10;2.33;;;12.90;99.90;;;;;;4914494;29;20055;-75
2023/01/01 12:23:57;;;;;;;11.45;2.38;;;12.80;99.90;;;;;;4910165;29;20452;-75
2023/01/01 12:26:24;;;;;;;11.30;2.25;;;12.70;99.90;;;;;;4918945;29;20051;-76
2023/01/01 12:29:29;;;;;;;11.63;2.33;;;12.60;99.90;;;;;;4915892;29;20064;-74
2023/01/01 12:32:06;;;;;;;12.90;2.60;;;12.50;99.90;;;;;;4933950;29;20048;-74
2023/01/01 12:34:48;;;;;;;11.40;2.08;;;12.50;99.90;;;;;;4918011;29;20517;-74
2023/01/01 12:37:24;;;;;;;11.10;2.17;;;12.50;99.90;;;;;;4907983;29;20052;-74
2023/01/01 12:40:31;;;;;;;10.32;2.17;;;12.40;99.90;;;;;;4917358;29;20130;-74
2023/01/01 12:43:07;;;;;;;13.70;2.20;;;12.40;99.90;;;;;;4915503;29;20044;-74
2023/01/01 12:46:18;;;;;;;12.05;2.35;;;12.40;99.90;;;;;;4918853;29;20059;-75
2023/01/01 12:49:13;;;;;;;12.57;2.20;;;12.30;99.90;;;;;;4917292;29;20060;-75
2023/01/01 12:52:01;;;;;;;9.93;2.10;;;12.20;99.90;;;;;;4917461;29;20537;-75
2023/01/01 12:54:45;;;;;;;12.63;2.45;;;12.20;99.90;;;;;;4926287;29;20063;-75
2023/01/01 12:57:29;;;;;;;12.70;2.35;;;12.20;99.90;;;;;;4918040;29;20051;-75
2023/01/01 12:59:58;;;;;;;13.00;2.40;;;12.10;99.90;;;;;;4915918;29;20056;-74